Time;durP1;ratioP1;P1;durP2;ratioP2;P2;SDS_P1;SDS_P2;PMS_P1;PMS_P2;Temp;Humidity;BMP_temperature;BMP_pressure;BME280_temperature;BME280_humidity;BME280_pressure;Samples;Min_cycle;Max_cycle;Signal;HPM_P1;HPM_P2
2022/12/05 00:02:49;;;;;;;22.10;17.10;;;;;;;-0.10;100.00;98135.85;107724;1263;59712;-71
2022/12/05 00:05:19;;;;;;;24.10;15.80;;;;;;;-0.16;100.00;98136.30;107754;1267;71256;-70
2022/12/05 00:07:48;;;;;;;;;;;;;;;-0.22;100.00;98143.78;107672;1267;69345;-70
2022/12/05 00:10:19;;;;;;;;;;;;;;;-0.30;100.00;98142.38;107691;1263;69842;-71
2022/12/05 00:12:48;;;;;;;17.90;12.90;;;;;;;-0.35;100.00;98144.36;107826;1267;59759;-70
2022/12/05 00:15:19;;;;;;;16.40;10.90;;;;;;;-0.41;100.00;98146.35;107652;1267;59793;-70
2022/12/05 00:17:49;;;;;;;19.90;12.80;;;;;;;-0.42;100.00;98144.32;107707;1265;71468;-70
2022/12/05 00:20:19;;;;;;;14.20;9.90;;;;;;;-0.43;100.00;98144.83;107617;1267;69512;-70
2022/12/05 00:22:50;;;;;;;15.80;11.60;;;;;;;-0.42;100.00;98143.10;107608;1267;68357;-71
2022/12/05 00:25:21;;;;;;;18.60;12.90;;;;;;;-0.41;100.00;98147.89;107679;1267;59702;-70
2022/12/05 00:27:51;;;;;;;;;;;;;;;-0.39;100.00;98152.47;107718;1267;59691;-71
2022/12/05 00:30:22;;;;;;;20.30;13.10;;;;;;;-0.40;100.00;98149.93;108010;1267;71698;-71
2022/12/05 00:32:52;;;;;;;15.30;10.60;;;;;;;-0.40;100.00;98148.21;107793;1263;69817;-70
2022/12/05 00:35:22;;;;;;;14.40;11.10;;;;;;;-0.39;100.00;98156.91;108297;1267;69418;-71
2022/12/05 00:37:51;;;;;;;13.40;9.60;;;;;;;-0.36;100.00;98157.05;107681;1266;59774;-71
2022/12/05 00:40:21;;;;;;;14.10;10.90;;;;;;;-0.35;100.00;98159.94;107656;1267;59755;-70
2022/12/05 00:42:51;;;;;;;12.80;9.60;;;;;;;-0.33;100.00;98160.74;107768;1267;71345;-71
2022/12/05 00:45:21;;;;;;;14.50;9.00;;;;;;;-0.32;100.00;98161.45;107648;1265;67435;-70
2022/12/05 00:47:51;;;;;;;14.10;10.30;;;;;;;-0.31;100.00;98162.96;107689;1267;68683;-70
2022/12/05 00:50:21;;;;;;;13.90;9.20;;;;;;;-0.31;100.00;98158.00;107636;1267;59753;-70
2022/12/05 00:52:51;;;;;;;14.50;10.60;;;;;;;-0.32;100.00;98158.52;107633;1267;59710;-70
2022/12/05 00:55:21;;;;;;;12.80;8.70;;;;;;;-0.32;100.00;98156.30;107672;1267;71620;-71
2022/12/05 00:57:50;;;;;;;12.30;8.50;;;;;;;-0.31;100.00;98154.75;107692;1267;68100;-72
2022/12/05 01:00:21;;;;;;;10.00;7.10;;;;;;;-0.32;100.00;98154.93;107650;1267;69250;-70
2022/12/05 01:02:52;;;;;;;9.30;6.80;;;;;;;-0.31;100.00;98155.09;107703;1263;59728;-70
2022/12/05 01:05:23;;;;;;;8.50;6.20;;;;;;;-0.31;100.00;98157.98;107750;1267;59780;-70
2022/12/05 01:07:53;;;;;;;9.00;6.30;;;;;;;-0.30;100.00;98153.50;107607;1270;71439;-70
2022/12/05 01:10:23;;;;;;;;;;;;;;;-0.30;100.00;98155.73;107630;1267;68163;-71
2022/12/05 01:12:54;;;;;;;15.30;9.60;;;;;;;-0.32;100.00;98152.19;107866;1267;69079;-71
2022/12/05 01:15:24;;;;;;;9.20;7.70;;;;;;;-0.32;100.00;98152.02;107826;1264;59742;-71
2022/12/05 01:17:54;;;;;;;14.70;9.60;;;;;;;-0.34;100.00;98151.52;107704;1267;59735;-70
2022/12/05 01:20:24;;;;;;;11.50;8.20;;;;;;;-0.36;100.00;98154.83;107691;1263;70622;-70
2022/12/05 01:22:55;;;;;;;11.10;7.40;;;;;;;-0.40;100.00;98154.20;107708;1267;69232;-70
2022/12/05 01:25:24;;;;;;;10.20;7.30;;;;;;;-0.44;100.00;98156.83;107670;1263;69234;-70
2022/12/05 01:27:55;;;;;;;9.00;7.20;;;;;;;-0.45;100.00;98157.04;107701;1262;59707;-72
2022/12/05 01:30:26;;;;;;;8.60;6.50;;;;;;;-0.44;100.00;98155.30;107699;1265;59735;-70
2022/12/05 01:32:59;;;;;;;11.60;8.80;;;;;;;-0.40;100.00;98155.06;107709;1267;71718;-70
2022/12/05 01:35:34;;;;;;;11.70;8.00;;;;;;;-0.38;100.00;98157.42;107637;1267;69496;-70
2022/12/05 01:38:08;;;;;;;11.60;7.80;;;;;;;-0.38;100.00;98156.56;107699;1263;67292;-72
2022/12/05 01:40:40;;;;;;;11.00;7.50;;;;;;;-0.38;100.00;98153.30;107670;1267;59717;-70
2022/12/05 01:43:16;;;;;;;9.30;6.20;;;;;;;-0.36;100.00;98152.60;107646;1267;59751;-70
2022/12/05 01:45:46;;;;;;;8.50;5.20;;;;;;;-0.34;100.00;98148.45;107767;1267;71303;-70
2022/12/05 01:48:22;;;;;;;10.70;6.00;;;;;;;-0.31;100.00;98146.00;107604;1263;69207;-70
2022/12/05 01:50:55;;;;;;;9.20;6.00;;;;;;;-0.27;100.00;98146.61;107732;1267;69599;-70
2022/12/05 01:53:27;;;;;;;7.90;5.70;;;;;;;-0.23;100.00;98143.63;107583;1267;59757;-70
2022/12/05 01:55:58;;;;;;;7.60;5.40;;;;;;;-0.19;100.00;98139.27;107661;1265;59849;-71
2022/12/05 01:58:35;;;;;;;10.10;6.90;;;;;;;-0.17;100.00;98139.42;107843;1265;71431;-71
2022/12/05 02:01:06;;;;;;;10.80;6.50;;;;;;;-0.15;100.00;98135.42;107839;1264;69126;-70
2022/12/05 02:03:42;;;;;;;12.10;7.10;;;;;;;-0.13;100.00;98130.09;107724;1263;69406;-70
2022/12/05 02:06:13;;;;;;;9.20;6.70;;;;;;;-0.13;100.00;98124.27;107563;1266;59761;-70
2022/12/05 02:08:44;;;;;;;9.30;5.50;;;;;;;-0.13;100.00;98129.58;107644;1267;59742;-69
2022/12/05 02:11:14;;;;;;;6.10;5.10;;;;;;;-0.13;100.00;98127.34;107630;1266;70428;-70
2022/12/05 02:13:53;;;;;;;7.70;5.00;;;;;;;-0.13;100.00;98124.42;107638;1267;68602;-70
2022/12/05 02:16:53;;;;;;;10.40;6.60;;;;;;;-0.14;100.00;98125.14;107643;1267;69067;-70
2022/12/05 02:19:47;;;;;;;9.10;5.10;;;;;;;-0.16;100.00;98123.13;107656;1267;59769;-70
2022/12/05 02:22:54;;;;;;;7.00;4.80;;;;;;;-0.19;100.00;98119.23;107643;1267;59721;-70
2022/12/05 02:25:38;;;;;;;5.50;3.80;;;;;;;-0.20;100.00;98120.79;107665;1267;71338;-70
2022/12/05 02:28:31;;;;;;;7.00;4.20;;;;;;;-0.19;100.00;98119.05;107625;1265;69010;-70
2022/12/05 02:31:19;;;;;;;5.70;4.10;;;;;;;-0.17;100.00;98123.50;107658;1266;69759;-72
2022/12/05 02:34:00;;;;;;;12.10;6.60;;;;;;;-0.17;100.00;98120.92;107651;1263;59696;-71
2022/12/05 02:36:34;;;;;;;6.50;5.40;;;;;;;-0.17;100.00;98121.61;107678;1267;59642;-72
2022/12/05 02:39:14;;;;;;;9.90;5.30;;;;;;;-0.18;100.00;98121.27;107670;1267;71453;-70
2022/12/05 02:42:06;;;;;;;9.50;5.40;;;;;;;-0.18;100.00;98117.33;107702;1267;69182;-70
2022/12/05 02:44:49;;;;;;;10.80;6.70;;;;;;;-0.17;100.00;98125.20;107630;1263;68525;-71
2022/12/05 02:47:25;;;;;;;8.80;5.20;;;;;;;-0.14;100.00;98118.97;107606;1263;59846;-70
2022/12/05 02:49:58;;;;;;;9.40;6.20;;;;;;;-0.11;100.00;98123.89;107642;1267;59633;-70
2022/12/05 02:52:31;;;;;;;7.20;5.40;;;;;;;-0.15;100.00;98128.41;107613;1263;71505;-70
2022/12/05 02:55:02;;;;;;;10.10;5.90;;;;;;;-0.20;100.00;98131.06;107666;1263;69053;-69
2022/12/05 02:57:34;;;;;;;7.10;5.40;;;;;;;-0.24;100.00;98129.93;107635;1263;69332;-69
2022/12/05 03:00:05;;;;;;;7.20;5.20;;;;;;;-0.25;100.00;98130.47;107734;1267;59728;-70
2022/12/05 03:02:40;;;;;;;9.30;5.90;;;;;;;-0.24;100.00;98131.81;107656;1266;59732;-70
2022/12/05 03:05:22;;;;;;;7.00;5.20;;;;;;;-0.27;100.00;98133.09;107702;1265;71885;-70
2022/12/05 03:07:59;;;;;;;7.40;4.70;;;;;;;-0.33;100.00;98132.16;107708;1267;68510;-72
2022/12/05 03:10:32;;;;;;;7.80;4.40;;;;;;;-0.37;100.00;98131.04;107729;1265;68500;-70
2022/12/05 03:13:10;;;;;;;8.60;5.60;;;;;;;-0.41;100.00;98131.97;107744;1262;60235;-70
2022/12/05 03:15:47;;;;;;;7.10;4.70;;;;;;;-0.45;100.00;98135.46;107679;1267;59675;-69
2022/12/05 03:18:27;;;;;;;6.50;4.90;;;;;;;-0.47;100.00;98135.48;107674;1262;70799;-69
2022/12/05 03:21:04;;;;;;;7.70;5.10;;;;;;;-0.52;100.00;98135.90;107712;1263;68470;-70
2022/12/05 03:23:44;;;;;;;6.00;5.00;;;;;;;-0.58;100.00;98141.64;107634;1263;69188;-70
2022/12/05 03:26:36;;;;;;;9.50;5.20;;;;;;;-0.64;100.00;98138.84;107760;1267;59790;-69
2022/12/05 03:29:26;;;;;;;9.10;5.60;;;;;;;-0.69;100.00;98146.11;107684;1267;59683;-70
2022/12/05 03:32:41;;;;;;;7.50;5.30;;;;;;;-0.72;100.00;98145.15;107625;1263;70410;-71
2022/12/05 03:35:20;;;;;;;7.90;5.20;;;;;;;-0.74;100.00;98146.20;107344;1270;69177;-70
2022/12/05 03:37:57;;;;;;;7.80;5.30;;;;;;;-0.76;100.00;98150.35;107340;1275;69504;-69
2022/12/05 03:40:56;;;;;;;11.80;7.40;;;;;;;-0.78;100.00;98147.64;107565;1262;60111;-70
2022/12/05 03:43:33;;;;;;;12.00;6.30;;;;;;;-0.77;100.00;98146.09;107758;1262;59689;-70
2022/12/05 03:46:11;;;;;;;9.20;6.80;;;;;;;-0.77;100.00;98145.08;107679;1267;71882;-70
2022/12/05 03:48:46;;;;;;;6.30;5.00;;;;;;;-0.78;100.00;98147.13;107614;1267;69810;-69
2022/12/05 03:51:20;;;;;;;16.30;10.70;;;;;;;-0.77;100.00;98145.23;107663;1267;69252;-69
2022/12/05 03:53:57;;;;;;;17.30;10.80;;;;;;;-0.78;100.00;98148.84;107668;1267;59768;-69
2022/12/05 03:56:39;;;;;;;17.00;11.10;;;;;;;-0.80;100.00;98146.82;107737;1265;59782;-70
2022/12/05 03:59:21;;;;;;;14.30;10.10;;;;;;;-0.82;100.00;98146.52;107642;1266;71364;-70
2022/12/05 04:01:54;;;;;;;16.90;11.70;;;;;;;-0.85;100.00;98150.48;107645;1263;69092;-70
2022/12/05 04:04:33;;;;;;;15.40;10.50;;;;;;;-0.87;100.00;98153.27;107627;1269;69750;-70
2022/12/05 04:07:07;;;;;;;18.30;11.70;;;;;;;-0.89;100.00;98152.08;107703;1267;59701;-70
2022/12/05 04:09:44;;;;;;;18.30;12.00;;;;;;;-0.90;100.00;98152.29;107684;1263;59719;-70
2022/12/05 04:12:20;;;;;;;14.80;10.30;;;;;;;-0.94;100.00;98152.17;107657;1267;70633;-70
2022/12/05 04:14:55;;;;;;;15.30;9.60;;;;;;;-0.96;100.00;98153.39;107658;1267;69108;-69
2022/12/05 04:17:38;;;;;;;13.40;9.70;;;;;;;-0.96;100.00;98154.44;107640;1265;69356;-70
2022/12/05 04:23:09;;;;;;;16.90;9.90;;;;;;;-0.93;100.00;98157.45;107648;1267;59784;-69
2022/12/05 04:26:01;;;;;;;12.50;9.30;;;;;;;-0.91;100.00;98157.80;107681;1263;71324;-70
2022/12/05 04:28:38;;;;;;;12.00;8.50;;;;;;;-0.93;100.00;98158.14;107724;1267;69404;-70
2022/12/05 04:31:15;;;;;;;13.90;8.50;;;;;;;-0.91;100.00;98153.85;107649;1267;70370;-69
2022/12/05 04:33:53;;;;;;;10.70;7.00;;;;;;;-0.89;100.00;98153.45;107683;1267;59701;-70
2022/12/05 04:36:32;;;;;;;8.50;6.10;;;;;;;-0.87;100.00;98154.29;107754;1267;59779;-69
2022/12/05 04:39:07;;;;;;;13.60;9.10;;;;;;;-0.83;100.00;98154.40;107783;1263;71420;-70
2022/12/05 04:42:02;;;;;;;14.70;9.80;;;;;;;-0.80;100.00;98153.83;107794;1267;69434;-69
2022/12/05 04:44:50;;;;;;;10.60;7.90;;;;;;;-0.79;100.00;98154.84;107744;1267;68279;-69
2022/12/05 04:47:26;;;;;;;17.20;13.20;;;;;;;-0.75;100.00;98155.98;107685;1265;59782;-69
2022/12/05 04:49:57;;;;;;;16.00;11.40;;;;;;;-0.73;100.00;98150.14;107697;1263;59753;-69
2022/12/05 04:52:28;;;;;;;14.80;10.10;;;;;;;-0.71;100.00;98150.95;107660;1265;71373;-70
2022/12/05 04:55:12;;;;;;;19.00;13.50;;;;;;;-0.69;100.00;98155.89;107734;1263;68544;-69
2022/12/05 04:57:50;;;;;;;21.80;14.40;;;;;;;-0.68;100.00;98161.00;107460;1270;69160;-72
2022/12/05 05:00:20;;;;;;;23.00;15.90;;;;;;;-0.68;100.00;98160.48;107694;1267;60093;-69
2022/12/05 05:02:59;;;;;;;20.00;14.30;;;;;;;-0.69;100.00;98158.80;107618;1267;59657;-69
2022/12/05 05:05:30;;;;;;;20.50;13.60;;;;;;;-0.72;100.00;98155.08;107653;1267;71526;-69
2022/12/05 05:08:00;;;;;;;16.90;12.10;;;;;;;-0.75;100.00;98154.08;107661;1267;69174;-69
2022/12/05 05:10:41;;;;;;;18.80;11.90;;;;;;;-0.75;100.00;98152.05;107634;1266;69908;-69
2022/12/05 05:13:11;;;;;;;15.80;11.60;;;;;;;-0.75;100.00;98150.51;107665;1265;59736;-69
2022/12/05 05:15:40;;;;;;;19.10;11.30;;;;;;;-0.74;100.00;98151.35;107728;1266;59771;-70
2022/12/05 05:18:09;;;;;;;16.80;10.90;;;;;;;-0.72;100.00;98152.86;107701;1263;71758;-70
2022/12/05 05:20:39;;;;;;;16.60;10.50;;;;;;;-0.69;100.00;98154.17;107751;1264;69204;-71
2022/12/05 05:23:09;;;;;;;;;;;;;;;-0.67;100.00;98155.69;107669;1267;69435;-70
2022/12/05 05:25:39;;;;;;;15.90;10.50;;;;;;;-0.68;100.00;98157.41;107736;1265;59713;-71
2022/12/05 05:28:08;;;;;;;17.20;11.50;;;;;;;-0.70;100.00;98160.16;107602;1267;59717;-69
2022/12/05 05:30:37;;;;;;;22.70;14.20;;;;;;;-0.72;100.00;98156.61;107656;1262;72013;-71
2022/12/05 05:33:06;;;;;;;20.40;13.50;;;;;;;-0.74;100.00;98158.36;107688;1263;68740;-71
2022/12/05 05:35:36;;;;;;;20.10;14.40;;;;;;;-0.75;100.00;98158.36;107749;1267;69507;-71
2022/12/05 05:38:05;;;;;;;19.50;12.90;;;;;;;-0.77;100.00;98159.59;107797;1267;59716;-71
2022/12/05 05:40:36;;;;;;;17.00;12.60;;;;;;;-0.77;100.00;98159.10;107773;1266;59738;-71
2022/12/05 05:43:05;;;;;;;15.20;11.10;;;;;;;-0.75;100.00;98159.23;107646;1266;71375;-70
2022/12/05 05:45:35;;;;;;;14.90;10.40;;;;;;;-0.72;100.00;98159.01;107722;1267;68760;-70
2022/12/05 05:48:05;;;;;;;13.30;9.40;;;;;;;-0.68;100.00;98160.33;107700;1267;69893;-70
2022/12/05 05:50:34;;;;;;;15.60;10.40;;;;;;;-0.64;100.00;98165.73;107718;1265;60109;-70
2022/12/05 05:53:11;;;;;;;12.60;8.40;;;;;;;-0.61;100.00;98170.13;107677;1267;59655;-69
2022/12/05 05:55:41;;;;;;;12.80;10.40;;;;;;;-0.59;100.00;98175.75;107687;1267;72135;-70
2022/12/05 05:58:10;;;;;;;19.30;13.30;;;;;;;-0.57;100.00;98171.95;107686;1263;68138;-70
2022/12/05 06:00:40;;;;;;;22.30;14.10;;;;;;;-0.57;100.00;98172.80;107684;1267;68455;-70
2022/12/05 06:03:09;;;;;;;15.70;13.00;;;;;;;-0.57;100.00;98169.05;107656;1267;59801;-70
2022/12/05 06:05:38;;;;;;;20.40;14.00;;;;;;;-0.57;100.00;98169.03;107720;1267;59728;-70
2022/12/05 06:08:07;;;;;;;20.50;13.50;;;;;;;-0.56;100.00;98169.02;107699;1263;70873;-70
2022/12/05 06:10:38;;;;;;;16.90;13.70;;;;;;;-0.54;100.00;98169.16;107694;1265;69799;-70
2022/12/05 06:13:06;;;;;;;19.80;12.70;;;;;;;-0.52;100.00;98168.44;107682;1267;69580;-70
2022/12/05 06:15:36;;;;;;;17.40;12.10;;;;;;;-0.49;100.00;98170.48;107684;1267;59783;-69
2022/12/05 06:18:05;;;;;;;27.10;18.20;;;;;;;-0.46;100.00;98178.30;107717;1267;59700;-69
2022/12/05 06:20:34;;;;;;;24.70;17.50;;;;;;;-0.45;100.00;98183.58;107658;1267;71384;-70
2022/12/05 06:23:02;;;;;;;34.60;23.90;;;;;;;-0.45;100.00;98183.42;107741;1265;67974;-70
2022/12/05 06:25:32;;;;;;;43.00;26.30;;;;;;;-0.46;100.00;98187.02;107751;1268;69747;-70
2022/12/05 06:28:01;;;;;;;42.30;28.90;;;;;;;-0.50;100.00;98185.55;107712;1262;59742;-70
2022/12/05 06:30:30;;;;;;;44.50;27.50;;;;;;;-0.52;100.00;98189.67;107947;1267;59629;-70
2022/12/05 06:32:59;;;;;;;38.10;23.60;;;;;;;-0.51;100.00;98193.77;107965;1265;71359;-69
2022/12/05 06:35:28;;;;;;;32.20;20.60;;;;;;;-0.49;100.00;98192.72;107663;1269;69028;-69
2022/12/05 06:37:56;;;;;;;35.90;22.40;;;;;;;-0.47;100.00;98192.70;107727;1267;69152;-70
2022/12/05 06:40:25;;;;;;;29.80;20.30;;;;;;;-0.44;100.00;98190.23;107630;1262;59774;-70
2022/12/05 06:42:54;;;;;;;28.20;20.30;;;;;;;-0.38;100.00;98194.77;107431;1266;59722;-70
2022/12/05 06:45:23;;;;;;;27.10;21.00;;;;;;;-0.30;100.00;98196.85;107738;1262;71377;-70
2022/12/05 06:47:53;;;;;;;31.90;22.00;;;;;;;-0.20;100.00;98195.82;107663;1267;69200;-70
2022/12/05 06:50:22;;;;;;;28.80;19.20;;;;;;;-0.09;100.00;98196.66;107696;1263;69320;-70
2022/12/05 06:52:51;;;;;;;22.60;15.90;;;;;;;0.05;100.00;98200.87;107768;1267;59779;-70
2022/12/05 06:55:20;;;;;;;19.70;13.90;;;;;;;0.28;100.00;98199.92;107707;1264;59665;-71
2022/12/05 06:57:49;;;;;;;27.90;17.50;;;;;;;0.57;100.00;98198.33;107629;1265;71377;-69
2022/12/05 07:03:10;;;;;;;24.30;18.30;;;;;;;1.14;99.85;98197.09;107686;1265;69353;-70
2022/12/05 07:05:38;;;;;;;19.10;16.40;;;;;;;1.47;97.78;98197.02;107641;1265;59724;-70
2022/12/05 07:08:07;;;;;;;16.50;13.90;;;;;;;1.86;95.97;98200.54;107654;1263;59716;-69
2022/12/05 07:10:36;;;;;;;21.50;16.30;;;;;;;2.29;96.55;98206.45;107654;1265;71350;-69
2022/12/05 07:13:05;;;;;;;21.10;17.20;;;;;;;2.77;99.83;98207.70;107765;1267;69932;-69
2022/12/05 07:15:36;;;;;;;19.80;16.20;;;;;;;3.19;100.00;98208.02;107722;1267;69900;-69
2022/12/05 07:18:06;;;;;;;18.60;15.50;;;;;;;3.49;99.68;98211.89;107653;1267;59734;-69
2022/12/05 07:20:35;;;;;;;19.60;15.60;;;;;;;3.73;99.19;98212.18;107738;1267;59727;-69
2022/12/05 07:23:24;;;;;;;28.00;19.50;;;;;;;4.05;89.18;98212.33;107693;1262;71206;-69
2022/12/05 07:25:54;;;;;;;34.30;24.00;;;;;;;4.23;82.52;98213.95;107633;1267;69867;-69
2022/12/05 07:28:23;;;;;;;33.70;25.00;;;;;;;4.47;81.16;98216.89;107712;1259;68465;-69
2022/12/05 07:31:00;;;;;;;37.30;26.30;;;;;;;4.80;78.99;98217.61;107746;1265;59775;-69
2022/12/05 07:33:29;;;;;;;52.30;38.00;;;;;;;5.18;77.67;98219.83;107687;1263;60115;-69
2022/12/05 07:36:07;;;;;;;51.50;38.40;;;;;;;5.48;76.45;98221.76;107821;1263;72131;-69
2022/12/05 07:38:37;;;;;;;53.80;41.00;;;;;;;5.54;74.95;98223.26;107808;1267;69889;-69
2022/12/05 07:41:13;;;;;;;52.10;39.40;;;;;;;5.39;75.17;98222.64;107647;1267;69891;-69
2022/12/05 07:43:42;;;;;;;81.00;60.70;;;;;;;5.30;75.57;98222.98;107668;1267;59707;-69
2022/12/05 07:46:11;;;;;;;48.90;36.60;;;;;;;5.08;76.79;98220.20;107845;1267;59695;-69
2022/12/05 07:48:39;;;;;;;42.30;34.60;;;;;;;5.00;77.35;98221.88;107651;1265;70410;-70
2022/12/05 07:51:10;;;;;;;83.10;58.60;;;;;;;4.85;77.30;98224.02;107809;1267;69306;-69
2022/12/05 07:53:41;;;;;;;48.80;37.10;;;;;;;4.42;78.16;98225.20;107621;1265;69909;-70
2022/12/05 07:56:15;;;;;;;38.20;33.90;;;;;;;4.19;79.08;98228.76;107662;1267;59703;-70
2022/12/05 07:58:47;;;;;;;37.90;31.40;;;;;;;4.10;80.18;98232.31;107673;1267;59778;-71
2022/12/05 08:01:20;;;;;;;36.80;29.60;;;;;;;3.83;81.61;98235.27;107624;1267;70565;-70
2022/12/05 08:03:52;;;;;;;39.20;31.80;;;;;;;3.81;82.42;98230.34;107659;1269;68412;-71
2022/12/05 08:06:26;;;;;;;44.50;34.10;;;;;;;3.91;83.66;98233.31;107659;1263;69339;-71
2022/12/05 08:08:55;;;;;;;48.20;38.00;;;;;;;4.02;84.04;98238.10;107829;1267;59774;-71
2022/12/05 08:11:31;;;;;;;38.90;28.40;;;;;;;4.42;83.84;98240.73;107694;1267;59704;-70
2022/12/05 08:14:00;;;;;;;25.80;21.30;;;;;;;4.87;81.31;98236.02;107660;1263;72148;-70
2022/12/05 08:16:31;;;;;;;26.70;23.00;;;;;;;5.31;80.46;98235.55;107659;1267;70170;-70
2022/12/05 08:19:03;;;;;;;25.40;21.50;;;;;;;5.49;78.19;98237.44;107750;1265;69126;-70
2022/12/05 08:21:33;;;;;;;27.40;22.00;;;;;;;5.90;81.62;98231.16;107787;1265;59816;-70
2022/12/05 08:24:06;;;;;;;23.00;20.10;;;;;;;6.13;80.59;98234.21;107656;1265;59733;-70
2022/12/05 08:26:37;;;;;;;29.10;24.70;;;;;;;6.14;76.94;98233.45;107643;1263;70641;-70
2022/12/05 08:29:09;;;;;;;;;;;;;;;6.16;78.29;98233.25;107679;1267;68498;-70
2022/12/05 08:31:41;;;;;;;38.30;31.00;;;;;;;6.10;79.16;98233.83;107640;1267;68614;-70
2022/12/05 08:34:12;;;;;;;61.80;47.10;;;;;;;5.91;77.86;98227.82;107679;1265;59742;-69
2022/12/05 08:36:41;;;;;;;61.70;51.50;;;;;;;5.75;78.68;98230.36;107697;1264;59669;-72
2022/12/05 08:39:14;;;;;;;87.40;73.40;;;;;;;5.61;78.73;98229.70;107788;1268;70585;-69
2022/12/05 08:41:45;;;;;;;46.30;36.90;;;;;;;5.37;79.97;98230.84;107660;1265;69279;-69
2022/12/05 08:44:15;;;;;;;52.30;39.10;;;;;;;5.02;82.26;98234.41;107705;1265;70192;-69
2022/12/05 08:46:47;;;;;;;56.60;39.70;;;;;;;4.87;83.25;98232.39;107671;1265;59744;-69
2022/12/05 08:49:17;;;;;;;47.40;38.10;;;;;;;4.78;84.47;98234.41;107722;1265;59742;-69
2022/12/05 08:51:46;;;;;;;52.80;43.50;;;;;;;4.69;85.99;98229.76;107648;1265;71886;-69
2022/12/05 08:54:16;;;;;;;49.30;40.60;;;;;;;4.60;85.41;98230.59;107692;1269;69390;-69
2022/12/05 08:56:45;;;;;;;63.90;47.10;;;;;;;4.55;86.45;98230.26;107627;1268;68596;-69
2022/12/05 08:59:14;;;;;;;51.30;38.50;;;;;;;4.54;87.41;98234.93;107633;1265;59745;-69
2022/12/05 09:01:43;;;;;;;55.30;42.70;;;;;;;4.52;87.29;98231.74;107698;1269;59745;-69
2022/12/05 09:04:12;;;;;;;62.60;49.90;;;;;;;4.46;87.69;98234.20;107696;1264;72065;-69
2022/12/05 09:06:42;;;;;;;64.40;50.60;;;;;;;4.44;87.48;98235.80;107575;1269;69375;-71
2022/12/05 09:09:11;;;;;;;65.90;51.00;;;;;;;4.40;88.57;98226.64;107661;1264;70209;-71
2022/12/05 09:11:47;;;;;;;66.90;54.50;;;;;;;4.39;88.63;98228.59;107696;1265;59695;-69
2022/12/05 09:14:17;;;;;;;68.20;52.60;;;;;;;4.42;88.52;98231.77;107692;1264;59708;-71
2022/12/05 09:16:46;;;;;;;71.10;55.90;;;;;;;4.46;88.30;98229.02;107884;1269;70416;-71
2022/12/05 09:19:19;;;;;;;69.80;54.00;;;;;;;4.50;87.78;98225.77;107710;1265;69826;-70
2022/12/05 09:21:48;;;;;;;69.00;53.50;;;;;;;4.51;87.63;98224.85;107663;1269;69941;-71
2022/12/05 09:24:17;;;;;;;68.50;54.20;;;;;;;4.53;87.36;98219.80;107642;1269;59736;-71
2022/12/05 09:26:46;;;;;;;62.20;46.90;;;;;;;4.53;87.42;98219.44;107816;1270;59712;-71
2022/12/05 09:29:16;;;;;;;58.00;47.20;;;;;;;4.56;87.26;98217.75;108042;1263;71964;-71
2022/12/05 09:31:47;;;;;;;;;;;;;;;4.55;86.47;98214.52;107704;1269;69185;-71
2022/12/05 09:34:16;;;;;;;;;;;;;;;4.58;86.20;98214.42;107842;1268;69917;-71
2022/12/05 09:36:51;;;;;;;54.90;41.50;;;;;;;4.63;86.46;98211.84;107797;1265;59760;-71
2022/12/05 09:39:43;;;;;;;47.10;37.90;;;;;;;4.73;86.76;98210.62;107689;1265;59729;-71
2022/12/05 09:42:17;;;;;;;39.60;31.30;;;;;;;4.83;85.98;98208.55;107758;1265;72006;-71
2022/12/05 09:44:52;;;;;;;32.00;25.70;;;;;;;4.92;85.38;98199.04;107695;1269;69226;-71
2022/12/05 09:47:40;;;;;;;25.70;20.60;;;;;;;5.03;82.99;98191.00;107598;1269;68347;-71
2022/12/05 09:50:29;;;;;;;21.80;18.80;;;;;;;5.19;79.82;98191.45;107789;1268;59693;-72
2022/12/05 09:53:08;;;;;;;;;;;;;;;5.37;80.76;98180.20;107665;1268;59734;-70
2022/12/05 09:55:53;;;;;;;36.30;27.30;;;;;;;5.53;82.03;98176.60;107661;1265;72478;-70
2022/12/05 09:58:32;;;;;;;25.40;19.20;;;;;;;5.75;81.91;98174.34;107711;1268;68429;-70
2022/12/05 10:01:22;;;;;;;20.90;16.10;;;;;;;5.96;78.68;98171.21;107645;1269;69319;-70
2022/12/05 10:04:17;;;;;;;20.00;15.20;;;;;;;6.08;74.85;98171.57;107272;1266;561057;-70
2022/12/05 10:07:06;;;;;;;19.40;16.00;;;;;;;6.18;73.53;98168.58;107546;1269;59777;-70
2022/12/05 10:21:11;;;;;;;16.00;13.60;;;;;;;6.78;72.42;98158.63;105475;1292;610014;-71
2022/12/05 10:23:48;;;;;;;16.20;14.30;;;;;;;6.91;69.80;98154.55;106667;1278;202029;-70
2022/12/05 10:26:31;;;;;;;14.40;12.00;;;;;;;6.92;69.45;98153.68;106934;1275;57677;-69
2022/12/05 10:29:07;;;;;;;10.90;8.30;;;;;;;7.01;71.22;98150.09;106938;1279;68786;-69
2022/12/05 10:31:38;;;;;;;10.70;8.00;;;;;;;7.04;70.47;98146.69;106942;1275;69068;-69
2022/12/05 10:34:30;;;;;;;9.20;5.90;;;;;;;7.06;69.02;98146.78;106870;1275;69261;-69
2022/12/05 10:37:07;;;;;;;8.60;6.10;;;;;;;7.10;70.40;98146.94;106933;1279;58103;-69
2022/12/05 10:39:37;;;;;;;9.50;6.30;;;;;;;7.09;69.70;98141.05;107385;1268;57684;-69
2022/12/05 10:42:13;;;;;;;6.50;5.20;;;;;;;7.10;70.18;98145.70;107389;1268;68926;-69
2022/12/05 10:44:43;;;;;;;8.40;5.70;;;;;;;7.09;70.64;98139.67;107384;1272;69593;-70
2022/12/05 10:47:13;;;;;;;6.70;5.60;;;;;;;7.04;69.59;98139.73;107366;1268;69100;-70
2022/12/05 10:49:42;;;;;;;7.20;5.60;;;;;;;6.96;68.17;98138.58;107447;1272;58161;-70
2022/12/05 10:52:13;;;;;;;7.40;5.20;;;;;;;6.87;67.84;98134.46;107565;1269;58108;-69
2022/12/05 10:54:48;;;;;;;7.20;5.20;;;;;;;6.83;67.94;98130.69;107518;1269;69618;-70
2022/12/05 10:57:23;;;;;;;5.10;4.00;;;;;;;6.83;68.50;98122.54;107717;1269;68186;-70
2022/12/05 10:59:53;;;;;;;7.20;5.70;;;;;;;6.89;70.72;98120.35;107714;1265;69982;-70
2022/12/05 11:02:30;;;;;;;7.70;5.90;;;;;;;6.89;69.67;98118.09;107745;1269;58090;-70
2022/12/05 11:04:59;;;;;;;5.70;4.40;;;;;;;6.91;70.36;98118.19;107754;1269;58056;-69
2022/12/05 11:07:34;;;;;;;4.80;3.20;;;;;;;6.92;69.38;98117.79;107744;1265;69162;-70
2022/12/05 11:10:27;;;;;;;5.10;3.10;;;;;;;6.85;69.10;98115.49;107711;1265;68611;-70
2022/12/05 11:12:57;;;;;;;4.30;3.00;;;;;;;6.80;69.08;98108.80;107718;1267;68384;-70
2022/12/05 11:15:30;;;;;;;4.40;3.70;;;;;;;6.78;68.77;98102.00;107678;1266;58605;-70
2022/12/05 11:18:18;;;;;;;4.80;3.30;;;;;;;6.78;69.17;98103.05;107692;1269;58165;-70
2022/12/05 11:20:47;;;;;;;3.90;3.30;;;;;;;6.81;70.33;98102.36;107808;1263;69629;-71
2022/12/05 11:23:23;;;;;;;4.10;3.20;;;;;;;6.82;70.64;98099.70;107798;1267;69082;-70
2022/12/05 11:25:53;;;;;;;4.60;3.40;;;;;;;6.81;70.14;98097.84;107665;1267;68315;-70
2022/12/05 11:28:29;;;;;;;4.50;3.00;;;;;;;6.76;68.72;98096.36;107744;1267;58090;-69
2022/12/05 11:31:00;;;;;;;4.60;2.80;;;;;;;6.71;69.19;98095.21;107744;1267;58116;-69
2022/12/05 11:33:34;;;;;;;6.80;4.30;;;;;;;6.69;69.13;98092.03;107820;1266;69759;-70
2022/12/05 11:36:30;;;;;;;5.40;4.30;;;;;;;6.66;70.03;98087.29;107760;1267;68228;-69
2022/12/05 11:39:00;;;;;;;4.80;3.60;;;;;;;6.56;69.04;98083.56;107783;1263;69131;-70
2022/12/05 11:41:37;;;;;;;6.80;4.10;;;;;;;6.50;68.78;98078.67;107869;1263;58154;-69
2022/12/05 11:44:21;;;;;;;4.90;3.00;;;;;;;6.50;69.62;98074.02;107844;1263;58109;-69
2022/12/05 11:47:11;;;;;;;4.60;3.00;;;;;;;6.46;68.49;98071.05;107692;1268;69658;-71
2022/12/05 11:50:11;;;;;;;5.80;3.80;;;;;;;6.47;68.57;98071.70;107796;1258;68469;-69
2022/12/05 11:53:08;;;;;;;4.60;3.30;;;;;;;6.49;68.11;98068.86;107748;1267;69284;-69
2022/12/05 11:55:42;;;;;;;5.90;3.20;;;;;;;6.56;67.96;98069.05;107780;1265;58112;-69
2022/12/05 11:58:48;;;;;;;6.00;3.60;;;;;;;6.58;67.01;98066.35;107814;1263;58181;-69
2022/12/05 12:01:17;;;;;;;5.10;3.60;;;;;;;6.66;67.55;98057.86;107808;1267;70233;-69
2022/12/05 12:04:24;;;;;;;3.60;2.70;;;;;;;6.69;67.02;98056.51;107698;1266;69905;-69
2022/12/05 12:07:24;;;;;;;3.20;2.70;;;;;;;6.75;67.18;98052.94;107724;1266;68517;-69
2022/12/05 12:10:19;;;;;;;3.90;3.30;;;;;;;6.79;66.51;98049.62;107654;1267;58175;-69